sensor_id;sensor_type;location;lat;lon;timestamp;temperature;humidity
13231;DHT22;6681;53.254;10.398;2023-04-24T00:01:29;12.70;99.90
13231;DHT22;6681;53.254;10.398;2023-04-24T00:03:55;12.60;99.90
13231;DHT22;6681;53.254;10.398;2023-04-24T00:06:25;12.70;99.90
13231;DHT22;6681;53.254;10.398;2023-04-24T00:08:59;10.30;99.90
13231;DHT22;6681;53.254;10.398;2023-04-24T00:11:25;12.60;99.90
13231;DHT22;6681;53.254;10.398;2023-04-24T00:13:51;12.60;99.90
13231;DHT22;6681;53.254;10.398;2023-04-24T00:16:17;12.50;99.90
13231;DHT22;6681;53.254;10.398;2023-04-24T00:18:42;12.50;99.90
13231;DHT22;6681;53.254;10.398;2023-04-24T00:21:10;10.90;99.90
13231;DHT22;6681;53.254;10.398;2023-04-24T00:23:36;12.40;99.90
13231;DHT22;6681;53.254;10.398;2023-04-24T00:26:01;12.50;99.90
13231;DHT22;6681;53.254;10.398;2023-04-24T00:28:27;12.50;99.90
13231;DHT22;6681;53.254;10.398;2023-04-24T00:30:53;12.50;99.90
13231;DHT22;6681;53.254;10.398;2023-04-24T00:33:19;12.40;99.90
13231;DHT22;6681;53.254;10.398;2023-04-24T00:35:45;12.40;99.90
13231;DHT22;6681;53.254;10.398;2023-04-24T00:38:11;12.40;99.90
13231;DHT22;6681;53.254;10.398;2023-04-24T00:40:36;12.30;99.90
13231;DHT22;6681;53.254;10.398;2023-04-24T00:43:02;12.30;99.90
13231;DHT22;6681;53.254;10.398;2023-04-24T00:45:28;12.40;99.90
13231;DHT22;6681;53.254;10.398;2023-04-24T00:47:53;12.50;99.90
13231;DHT22;6681;53.254;10.398;2023-04-24T00:50:21;12.50;99.90
13231;DHT22;6681;53.254;10.398;2023-04-24T00:52:47;12.50;99.90
13231;DHT22;6681;53.254;10.398;2023-04-24T00:55:12;12.40;99.90
13231;DHT22;6681;53.254;10.398;2023-04-24T00:57:38;12.40;99.90
13231;DHT22;6681;53.254;10.398;2023-04-24T01:00:05;12.40;99.90
13231;DHT22;6681;53.254;10.398;2023-04-24T01:02:36;12.40;99.90
13231;DHT22;6681;53.254;10.398;2023-04-24T01:05:06;12.40;99.90
13231;DHT22;6681;53.254;10.398;2023-04-24T01:07:32;12.50;99.90
13231;DHT22;6681;53.254;10.398;2023-04-24T01:10:00;12.50;99.90
13231;DHT22;6681;53.254;10.398;2023-04-24T01:12:26;12.50;99.90
13231;DHT22;6681;53.254;10.398;2023-04-24T01:14:52;12.40;99.90
13231;DHT22;6681;53.254;10.398;2023-04-24T01:17:17;12.40;99.90
13231;DHT22;6681;53.254;10.398;2023-04-24T01:19:43;12.40;99.90
13231;DHT22;6681;53.254;10.398;2023-04-24T01:22:16;12.40;99.90
13231;DHT22;6681;53.254;10.398;2023-04-24T01:24:43;12.30;99.90
13231;DHT22;6681;53.254;10.398;2023-04-24T01:27:09;12.40;99.90
13231;DHT22;6681;53.254;10.398;2023-04-24T01:29:36;12.20;99.90
13231;DHT22;6681;53.254;10.398;2023-04-24T01:32:03;12.20;99.90
13231;DHT22;6681;53.254;10.398;2023-04-24T01:34:29;12.20;99.90
13231;DHT22;6681;53.254;10.398;2023-04-24T01:36:55;12.40;99.90
13231;DHT22;6681;53.254;10.398;2023-04-24T01:39:22;12.20;99.90
13231;DHT22;6681;53.254;10.398;2023-04-24T01:41:48;12.20;99.90
13231;DHT22;6681;53.254;10.398;2023-04-24T01:44:16;12.20;99.90
13231;DHT22;6681;53.254;10.398;2023-04-24T01:46:41;12.10;99.90
13231;DHT22;6681;53.254;10.398;2023-04-24T01:49:07;12.10;99.90
13231;DHT22;6681;53.254;10.398;2023-04-24T01:51:32;12.20;99.90
13231;DHT22;6681;53.254;10.398;2023-04-24T01:53:58;12.10;99.90
13231;DHT22;6681;53.254;10.398;2023-04-24T01:56:24;12.00;99.90
13231;DHT22;6681;53.254;10.398;2023-04-24T01:58:52;12.00;99.90
13231;DHT22;6681;53.254;10.398;2023-04-24T02:01:19;12.00;99.90
13231;DHT22;6681;53.254;10.398;2023-04-24T02:03:45;12.00;99.90
13231;DHT22;6681;53.254;10.398;2023-04-24T02:06:11;12.40;99.90
13231;DHT22;6681;53.254;10.398;2023-04-24T02:08:37;12.00;99.90
13231;DHT22;6681;53.254;10.398;2023-04-24T02:11:02;11.90;99.90
13231;DHT22;6681;53.254;10.398;2023-04-24T02:13:28;11.90;99.90
13231;DHT22;6681;53.254;10.398;2023-04-24T02:15:54;11.90;99.90
13231;DHT22;6681;53.254;10.398;2023-04-24T02:18:19;11.90;99.90
13231;DHT22;6681;53.254;10.398;2023-04-24T02:20:46;11.90;99.90
13231;DHT22;6681;53.254;10.398;2023-04-24T02:23:11;11.90;99.90
13231;DHT22;6681;53.254;10.398;2023-04-24T02:25:38;11.80;99.90
13231;DHT22;6681;53.254;10.398;2023-04-24T02:28:04;11.80;99.90
13231;DHT22;6681;53.254;10.398;2023-04-24T02:30:30;11.70;99.90
13231;DHT22;6681;53.254;10.398;2023-04-24T02:32:56;11.70;99.90
13231;DHT22;6681;53.254;10.398;2023-04-24T02:35:21;11.70;99.90
13231;DHT22;6681;53.254;10.398;2023-04-24T02:37:47;11.80;99.90
13231;DHT22;6681;53.254;10.398;2023-04-24T02:40:13;11.70;99.90
13231;DHT22;6681;53.254;10.398;2023-04-24T02:42:38;11.40;99.90
13231;DHT22;6681;53.254;10.398;2023-04-24T02:45:04;11.60;99.90
13231;DHT22;6681;53.254;10.398;2023-04-24T02:47:30;11.60;99.90
13231;DHT22;6681;53.254;10.398;2023-04-24T02:49:56;11.60;99.90
13231;DHT22;6681;53.254;10.398;2023-04-24T02:52:21;11.70;99.90
13231;DHT22;6681;53.254;10.398;2023-04-24T02:54:47;11.70;99.90
13231;DHT22;6681;53.254;10.398;2023-04-24T02:57:13;11.70;99.90
13231;DHT22;6681;53.254;10.398;2023-04-24T02:59:38;11.70;99.90
13231;DHT22;6681;53.254;10.398;2023-04-24T03:02:04;11.60;99.90
13231;DHT22;6681;53.254;10.398;2023-04-24T03:04:29;11.60;99.90
13231;DHT22;6681;53.254;10.398;2023-04-24T03:06:55;11.60;99.90
13231;DHT22;6681;53.254;10.398;2023-04-24T03:09:21;11.50;99.90
13231;DHT22;6681;53.254;10.398;2023-04-24T03:11:47;11.40;99.90
13231;DHT22;6681;53.254;10.398;2023-04-24T03:14:15;11.40;99.90
13231;DHT22;6681;53.254;10.398;2023-04-24T03:16:40;11.40;99.90
13231;DHT22;6681;53.254;10.398;2023-04-24T03:19:06;11.40;99.90
13231;DHT22;6681;53.254;10.398;2023-04-24T03:21:32;11.40;99.90
13231;DHT22;6681;53.254;10.398;2023-04-24T03:23:57;11.30;99.90
13231;DHT22;6681;53.254;10.398;2023-04-24T03:26:23;11.30;99.90
13231;DHT22;6681;53.254;10.398;2023-04-24T03:28:48;11.20;99.90
13231;DHT22;6681;53.254;10.398;2023-04-24T03:31:14;11.20;99.90
13231;DHT22;6681;53.254;10.398;2023-04-24T03:33:41;11.20;99.90
13231;DHT22;6681;53.254;10.398;2023-04-24T03:36:06;11.20;99.90
13231;DHT22;6681;53.254;10.398;2023-04-24T03:38:32;11.10;99.90
13231;DHT22;6681;53.254;10.398;2023-04-24T03:40:58;11.10;99.90
13231;DHT22;6681;53.254;10.398;2023-04-24T03:43:23;11.10;99.90
13231;DHT22;6681;53.254;10.398;2023-04-24T03:45:49;11.10;99.90
13231;DHT22;6681;53.254;10.398;2023-04-24T03:48:15;11.00;99.90
13231;DHT22;6681;53.254;10.398;2023-04-24T03:50:40;11.00;99.90
13231;DHT22;6681;53.254;10.398;2023-04-24T03:53:06;11.00;99.90
13231;DHT22;6681;53.254;10.398;2023-04-24T03:55:31;11.00;99.90
13231;DHT22;6681;53.254;10.398;2023-04-24T03:57:57;10.90;99.90
13231;DHT22;6681;53.254;10.398;2023-04-24T04:00:23;10.90;99.90
13231;DHT22;6681;53.254;10.398;2023-04-24T04:02:48;10.90;99.90
13231;DHT22;6681;53.254;10.398;2023-04-24T04:05:14;10.80;99.90
13231;DHT22;6681;53.254;10.398;2023-04-24T04:07:40;10.80;99.90
13231;DHT22;6681;53.254;10.398;2023-04-24T04:10:06;10.80;99.90
13231;DHT22;6681;53.254;10.398;2023-04-24T04:12:32;10.70;99.90
13231;DHT22;6681;53.254;10.398;2023-04-24T04:14:58;10.70;99.90
13231;DHT22;6681;53.254;10.398;2023-04-24T04:17:26;10.60;99.90
13231;DHT22;6681;53.254;10.398;2023-04-24T04:19:51;10.60;99.90
13231;DHT22;6681;53.254;10.398;2023-04-24T04:22:17;10.50;99.90
13231;DHT22;6681;53.254;10.398;2023-04-24T04:24:43;10.50;99.90
13231;DHT22;6681;53.254;10.398;2023-04-24T04:27:09;10.40;99.90
13231;DHT22;6681;53.254;10.398;2023-04-24T04:29:36;10.30;99.90
13231;DHT22;6681;53.254;10.398;2023-04-24T04:32:02;10.30;99.90
13231;DHT22;6681;53.254;10.398;2023-04-24T04:34:27;10.30;99.90
13231;DHT22;6681;53.254;10.398;2023-04-24T04:36:54;10.30;99.90
13231;DHT22;6681;53.254;10.398;2023-04-24T04:39:19;10.30;99.90
13231;DHT22;6681;53.254;10.398;2023-04-24T04:41:45;10.20;99.90
13231;DHT22;6681;53.254;10.398;2023-04-24T04:44:14;10.30;99.90
13231;DHT22;6681;53.254;10.398;2023-04-24T04:46:40;10.30;99.90
13231;DHT22;6681;53.254;10.398;2023-04-24T04:49:07;10.30;99.90
13231;DHT22;6681;53.254;10.398;2023-04-24T04:51:34;10.30;99.90
13231;DHT22;6681;53.254;10.398;2023-04-24T04:54:00;10.30;99.90
13231;DHT22;6681;53.254;10.398;2023-04-24T04:56:25;10.40;99.90
13231;DHT22;6681;53.254;10.398;2023-04-24T04:58:51;10.40;99.90
13231;DHT22;6681;53.254;10.398;2023-04-24T05:01:17;10.40;99.90
13231;DHT22;6681;53.254;10.398;2023-04-24T05:03:42;10.40;99.90
13231;DHT22;6681;53.254;10.398;2023-04-24T05:06:08;10.40;99.90
13231;DHT22;6681;53.254;10.398;2023-04-24T05:08:34;10.50;99.90
13231;DHT22;6681;53.254;10.398;2023-04-24T05:10:59;10.50;99.90
13231;DHT22;6681;53.254;10.398;2023-04-24T05:13:25;10.60;99.90
13231;DHT22;6681;53.254;10.398;2023-04-24T05:15:51;10.50;99.90
13231;DHT22;6681;53.254;10.398;2023-04-24T05:18:17;10.60;99.90
13231;DHT22;6681;53.254;10.398;2023-04-24T05:20:43;10.60;99.90
13231;DHT22;6681;53.254;10.398;2023-04-24T05:23:11;10.60;99.90
13231;DHT22;6681;53.254;10.398;2023-04-24T05:25:37;10.70;99.90
13231;DHT22;6681;53.254;10.398;2023-04-24T05:28:04;10.70;99.90
13231;DHT22;6681;53.254;10.398;2023-04-24T05:30:30;10.70;99.90
13231;DHT22;6681;53.254;10.398;2023-04-24T05:32:56;10.70;99.90
13231;DHT22;6681;53.254;10.398;2023-04-24T05:35:21;10.70;99.90
13231;DHT22;6681;53.254;10.398;2023-04-24T05:37:48;10.80;99.90
13231;DHT22;6681;53.254;10.398;2023-04-24T05:40:14;10.80;99.90
13231;DHT22;6681;53.254;10.398;2023-04-24T05:42:39;10.80;99.90
13231;DHT22;6681;53.254;10.398;2023-04-24T05:45:06;10.80;99.90
13231;DHT22;6681;53.254;10.398;2023-04-24T05:47:31;10.90;99.90
13231;DHT22;6681;53.254;10.398;2023-04-24T05:49:57;10.90;99.90
13231;DHT22;6681;53.254;10.398;2023-04-24T05:52:22;10.90;99.90
13231;DHT22;6681;53.254;10.398;2023-04-24T05:54:48;11.00;99.90
13231;DHT22;6681;53.254;10.398;2023-04-24T05:57:14;11.00;99.90
13231;DHT22;6681;53.254;10.398;2023-04-24T05:59:40;11.00;99.90
13231;DHT22;6681;53.254;10.398;2023-04-24T06:02:07;11.00;99.90
13231;DHT22;6681;53.254;10.398;2023-04-24T06:04:32;11.00;99.90
13231;DHT22;6681;53.254;10.398;2023-04-24T06:06:59;11.00;99.90
13231;DHT22;6681;53.254;10.398;2023-04-24T06:09:25;11.10;99.90
13231;DHT22;6681;53.254;10.398;2023-04-24T06:11:51;11.10;99.90
13231;DHT22;6681;53.254;10.398;2023-04-24T06:14:19;12.50;99.90
13231;DHT22;6681;53.254;10.398;2023-04-24T06:16:45;11.20;99.90
13231;DHT22;6681;53.254;10.398;2023-04-24T06:19:10;11.20;99.90
13231;DHT22;6681;53.254;10.398;2023-04-24T06:21:36;11.30;99.90
13231;DHT22;6681;53.254;10.398;2023-04-24T06:24:02;11.30;99.90
13231;DHT22;6681;53.254;10.398;2023-04-24T06:26:29;11.40;99.90
13231;DHT22;6681;53.254;10.398;2023-04-24T06:28:54;11.40;99.90
13231;DHT22;6681;53.254;10.398;2023-04-24T06:31:20;11.50;99.90
13231;DHT22;6681;53.254;10.398;2023-04-24T06:33:48;11.60;99.90
13231;DHT22;6681;53.254;10.398;2023-04-24T06:36:14;11.60;99.90
13231;DHT22;6681;53.254;10.398;2023-04-24T06:38:39;11.60;99.90
13231;DHT22;6681;53.254;10.398;2023-04-24T06:41:05;11.70;99.90
13231;DHT22;6681;53.254;10.398;2023-04-24T06:43:31;11.80;99.90
13231;DHT22;6681;53.254;10.398;2023-04-24T06:45:57;11.90;99.90
13231;DHT22;6681;53.254;10.398;2023-04-24T06:48:24;11.90;99.90
13231;DHT22;6681;53.254;10.398;2023-04-24T06:50:50;11.90;99.90
13231;DHT22;6681;53.254;10.398;2023-04-24T06:53:16;12.00;99.90
13231;DHT22;6681;53.254;10.398;2023-04-24T06:55:44;12.10;99.90
13231;DHT22;6681;53.254;10.398;2023-04-24T06:58:11;12.30;99.90
13231;DHT22;6681;53.254;10.398;2023-04-24T07:00:37;12.30;99.90
13231;DHT22;6681;53.254;10.398;2023-04-24T07:03:04;12.40;99.90
13231;DHT22;6681;53.254;10.398;2023-04-24T07:05:31;12.50;99.90
13231;DHT22;6681;53.254;10.398;2023-04-24T07:07:59;12.60;99.90
13231;DHT22;6681;53.254;10.398;2023-04-24T07:10:24;12.60;99.90
13231;DHT22;6681;53.254;10.398;2023-04-24T07:12:52;12.60;99.90
13231;DHT22;6681;53.254;10.398;2023-04-24T07:15:18;12.70;99.90
13231;DHT22;6681;53.254;10.398;2023-04-24T07:17:43;12.70;99.90
13231;DHT22;6681;53.254;10.398;2023-04-24T07:20:10;12.80;99.90
13231;DHT22;6681;53.254;10.398;2023-04-24T07:22:40;12.90;99.90
13231;DHT22;6681;53.254;10.398;2023-04-24T07:25:06;13.00;99.90
13231;DHT22;6681;53.254;10.398;2023-04-24T07:27:32;13.10;99.90
13231;DHT22;6681;53.254;10.398;2023-04-24T07:30:01;13.10;99.90
13231;DHT22;6681;53.254;10.398;2023-04-24T07:32:27;13.10;99.90
13231;DHT22;6681;53.254;10.398;2023-04-24T07:34:52;13.10;99.90
13231;DHT22;6681;53.254;10.398;2023-04-24T07:37:18;13.00;99.90
13231;DHT22;6681;53.254;10.398;2023-04-24T07:39:44;13.00;99.90
13231;DHT22;6681;53.254;10.398;2023-04-24T07:42:10;13.00;99.90
13231;DHT22;6681;53.254;10.398;2023-04-24T07:44:35;13.00;99.90
13231;DHT22;6681;53.254;10.398;2023-04-24T07:47:01;13.00;99.90
13231;DHT22;6681;53.254;10.398;2023-04-24T07:49:27;13.00;99.90
13231;DHT22;6681;53.254;10.398;2023-04-24T07:51:53;13.10;99.90
13231;DHT22;6681;53.254;10.398;2023-04-24T07:54:19;13.20;99.90
13231;DHT22;6681;53.254;10.398;2023-04-24T07:56:44;13.20;99.90
13231;DHT22;6681;53.254;10.398;2023-04-24T07:59:10;13.20;99.90
13231;DHT22;6681;53.254;10.398;2023-04-24T08:01:37;13.20;99.90
13231;DHT22;6681;53.254;10.398;2023-04-24T08:04:02;13.30;99.90
13231;DHT22;6681;53.254;10.398;2023-04-24T08:06:29;13.30;99.90
13231;DHT22;6681;53.254;10.398;2023-04-24T08:08:59;13.40;99.90
13231;DHT22;6681;53.254;10.398;2023-04-24T08:11:26;13.50;99.90
13231;DHT22;6681;53.254;10.398;2023-04-24T08:13:52;13.60;99.90
13231;DHT22;6681;53.254;10.398;2023-04-24T08:16:17;13.60;99.90
13231;DHT22;6681;53.254;10.398;2023-04-24T08:18:43;13.50;99.90
13231;DHT22;6681;53.254;10.398;2023-04-24T08:21:09;13.50;99.90
13231;DHT22;6681;53.254;10.398;2023-04-24T08:23:34;13.50;99.90
13231;DHT22;6681;53.254;10.398;2023-04-24T08:26:00;13.50;99.90
13231;DHT22;6681;53.254;10.398;2023-04-24T08:28:25;13.60;99.90
13231;DHT22;6681;53.254;10.398;2023-04-24T08:30:51;13.60;99.90
13231;DHT22;6681;53.254;10.398;2023-04-24T08:33:23;13.60;99.90
13231;DHT22;6681;53.254;10.398;2023-04-24T08:35:49;13.80;99.90
13231;DHT22;6681;53.254;10.398;2023-04-24T08:38:16;13.80;99.90
13231;DHT22;6681;53.254;10.398;2023-04-24T08:40:42;14.00;99.90
13231;DHT22;6681;53.254;10.398;2023-04-24T08:43:08;14.00;99.90
13231;DHT22;6681;53.254;10.398;2023-04-24T08:45:35;14.00;99.90
13231;DHT22;6681;53.254;10.398;2023-04-24T08:48:02;14.00;99.90
13231;DHT22;6681;53.254;10.398;2023-04-24T08:50:32;14.00;99.90
13231;DHT22;6681;53.254;10.398;2023-04-24T08:52:58;13.90;99.90
13231;DHT22;6681;53.254;10.398;2023-04-24T08:55:24;13.90;99.90
13231;DHT22;6681;53.254;10.398;2023-04-24T08:57:51;13.90;99.90
13231;DHT22;6681;53.254;10.398;2023-04-24T09:00:19;14.00;99.90
13231;DHT22;6681;53.254;10.398;2023-04-24T09:02:47;14.00;99.90
13231;DHT22;6681;53.254;10.398;2023-04-24T09:05:14;14.00;99.90
13231;DHT22;6681;53.254;10.398;2023-04-24T09:07:44;14.10;99.90
13231;DHT22;6681;53.254;10.398;2023-04-24T09:10:10;14.10;99.90
13231;DHT22;6681;53.254;10.398;2023-04-24T09:12:37;14.00;99.90
13231;DHT22;6681;53.254;10.398;2023-04-24T09:15:03;13.90;99.90
13231;DHT22;6681;53.254;10.398;2023-04-24T09:17:30;13.80;99.90
13231;DHT22;6681;53.254;10.398;2023-04-24T09:19:56;13.70;99.90
13231;DHT22;6681;53.254;10.398;2023-04-24T09:22:22;13.70;99.90
13231;DHT22;6681;53.254;10.398;2023-04-24T09:24:47;13.70;99.90
13231;DHT22;6681;53.254;10.398;2023-04-24T09:27:13;13.70;99.90
13231;DHT22;6681;53.254;10.398;2023-04-24T09:30:02;13.70;99.90
13231;DHT22;6681;53.254;10.398;2023-04-24T09:32:28;13.70;99.90
13231;DHT22;6681;53.254;10.398;2023-04-24T09:35:24;13.70;99.90
13231;DHT22;6681;53.254;10.398;2023-04-24T09:37:50;13.70;99.90
13231;DHT22;6681;53.254;10.398;2023-04-24T09:40:21;13.90;99.90
13231;DHT22;6681;53.254;10.398;2023-04-24T09:42:55;14.00;99.90
13231;DHT22;6681;53.254;10.398;2023-04-24T09:45:26;14.00;99.90
13231;DHT22;6681;53.254;10.398;2023-04-24T09:47:52;14.00;99.90
13231;DHT22;6681;53.254;10.398;2023-04-24T09:50:21;14.00;99.90
13231;DHT22;6681;53.254;10.398;2023-04-24T09:52:59;14.00;99.90
13231;DHT22;6681;53.254;10.398;2023-04-24T09:55:26;13.90;99.90
13231;DHT22;6681;53.254;10.398;2023-04-24T09:58:00;14.00;99.90
13231;DHT22;6681;53.254;10.398;2023-04-24T10:00:27;13.90;99.90
13231;DHT22;6681;53.254;10.398;2023-04-24T10:03:04;13.80;99.90
13231;DHT22;6681;53.254;10.398;2023-04-24T10:05:37;13.80;99.90
13231;DHT22;6681;53.254;10.398;2023-04-24T10:08:13;13.90;99.90
13231;DHT22;6681;53.254;10.398;2023-04-24T10:13:07;14.10;99.90
13231;DHT22;6681;53.254;10.398;2023-04-24T10:15:34;14.10;99.90
13231;DHT22;6681;53.254;10.398;2023-04-24T10:18:00;14.10;99.90
13231;DHT22;6681;53.254;10.398;2023-04-24T10:20:28;14.10;99.90
13231;DHT22;6681;53.254;10.398;2023-04-24T10:22:56;14.10;99.90
13231;DHT22;6681;53.254;10.398;2023-04-24T10:25:34;14.20;99.90
13231;DHT22;6681;53.254;10.398;2023-04-24T10:28:01;14.30;99.90
13231;DHT22;6681;53.254;10.398;2023-04-24T10:30:29;14.40;99.90
13231;DHT22;6681;53.254;10.398;2023-04-24T10:32:56;14.40;99.90
13231;DHT22;6681;53.254;10.398;2023-04-24T10:35:22;14.40;99.90
13231;DHT22;6681;53.254;10.398;2023-04-24T10:37:59;14.40;99.90
13231;DHT22;6681;53.254;10.398;2023-04-24T10:40:33;14.40;99.90
13231;DHT22;6681;53.254;10.398;2023-04-24T10:43:04;14.50;99.90
13231;DHT22;6681;53.254;10.398;2023-04-24T10:45:32;14.40;99.90
13231;DHT22;6681;53.254;10.398;2023-04-24T10:47:59;14.20;99.90
13231;DHT22;6681;53.254;10.398;2023-04-24T10:50:28;14.00;99.90
13231;DHT22;6681;53.254;10.398;2023-04-24T10:53:05;13.90;99.90
13231;DHT22;6681;53.254;10.398;2023-04-24T10:56:05;13.90;99.90
13231;DHT22;6681;53.254;10.398;2023-04-24T10:58:45;13.90;99.90
13231;DHT22;6681;53.254;10.398;2023-04-24T11:01:25;14.10;99.90
13231;DHT22;6681;53.254;10.398;2023-04-24T11:03:56;14.40;99.90
13231;DHT22;6681;53.254;10.398;2023-04-24T11:06:33;14.70;99.90
13231;DHT22;6681;53.254;10.398;2023-04-24T11:09:10;14.90;99.90
13231;DHT22;6681;53.254;10.398;2023-04-24T11:11:44;14.80;99.90
13231;DHT22;6681;53.254;10.398;2023-04-24T11:14:10;14.70;99.90
13231;DHT22;6681;53.254;10.398;2023-04-24T11:16:51;14.50;99.90
13231;DHT22;6681;53.254;10.398;2023-04-24T11:21:44;14.50;99.90
13231;DHT22;6681;53.254;10.398;2023-04-24T11:26:56;14.40;99.90
13231;DHT22;6681;53.254;10.398;2023-04-24T11:29:23;14.40;99.90
13231;DHT22;6681;53.254;10.398;2023-04-24T11:34:40;14.80;99.90
13231;DHT22;6681;53.254;10.398;2023-04-24T11:37:06;14.70;99.90
13231;DHT22;6681;53.254;10.398;2023-04-24T11:39:36;14.60;99.90
13231;DHT22;6681;53.254;10.398;2023-04-24T11:42:03;14.50;99.90
13231;DHT22;6681;53.254;10.398;2023-04-24T11:44:29;14.60;99.90
13231;DHT22;6681;53.254;10.398;2023-04-24T11:46:57;14.80;99.90
13231;DHT22;6681;53.254;10.398;2023-04-24T11:49:24;14.90;99.90
13231;DHT22;6681;53.254;10.398;2023-04-24T11:51:49;15.10;99.90
13231;DHT22;6681;53.254;10.398;2023-04-24T11:54:15;15.30;99.90
13231;DHT22;6681;53.254;10.398;2023-04-24T11:56:46;15.30;99.90
13231;DHT22;6681;53.254;10.398;2023-04-24T11:59:12;15.10;99.90
13231;DHT22;6681;53.254;10.398;2023-04-24T12:01:48;14.90;99.90
13231;DHT22;6681;53.254;10.398;2023-04-24T12:04:15;14.90;99.90
13231;DHT22;6681;53.254;10.398;2023-04-24T12:07:02;14.70;99.90
13231;DHT22;6681;53.254;10.398;2023-04-24T12:09:28;14.60;99.90
13231;DHT22;6681;53.254;10.398;2023-04-24T12:11:55;14.40;99.90
13231;DHT22;6681;53.254;10.398;2023-04-24T12:14:22;14.20;99.90
13231;DHT22;6681;53.254;10.398;2023-04-24T12:16:49;14.20;99.90
13231;DHT22;6681;53.254;10.398;2023-04-24T12:19:21;14.10;99.90
13231;DHT22;6681;53.254;10.398;2023-04-24T12:21:59;14.20;99.90
13231;DHT22;6681;53.254;10.398;2023-04-24T12:24:25;14.20;99.90
13231;DHT22;6681;53.254;10.398;2023-04-24T12:26:51;14.20;99.90
13231;DHT22;6681;53.254;10.398;2023-04-24T12:29:20;14.20;99.90
13231;DHT22;6681;53.254;10.398;2023-04-24T12:31:46;14.30;99.90
13231;DHT22;6681;53.254;10.398;2023-04-24T12:34:22;14.40;99.90
13231;DHT22;6681;53.254;10.398;2023-04-24T12:36:49;14.40;99.90
13231;DHT22;6681;53.254;10.398;2023-04-24T12:39:18;14.50;99.90
13231;DHT22;6681;53.254;10.398;2023-04-24T12:41:57;14.60;99.90
13231;DHT22;6681;53.254;10.398;2023-04-24T12:44:33;14.70;99.90
13231;DHT22;6681;53.254;10.398;2023-04-24T12:47:00;14.70;99.90
13231;DHT22;6681;53.254;10.398;2023-04-24T12:49:26;14.60;99.90
13231;DHT22;6681;53.254;10.398;2023-04-24T12:51:53;14.60;99.90
13231;DHT22;6681;53.254;10.398;2023-04-24T12:54:19;14.40;99.90
13231;DHT22;6681;53.254;10.398;2023-04-24T12:56:44;14.30;99.90
13231;DHT22;6681;53.254;10.398;2023-04-24T12:59:10;14.20;99.90
13231;DHT22;6681;53.254;10.398;2023-04-24T13:01:36;14.00;99.90
13231;DHT22;6681;53.254;10.398;2023-04-24T13:04:01;13.80;99.90
13231;DHT22;6681;53.254;10.398;2023-04-24T13:06:27;13.80;99.90
13231;DHT22;6681;53.254;10.398;2023-04-24T13:08:53;13.50;99.90
13231;DHT22;6681;53.254;10.398;2023-04-24T13:11:20;13.30;99.90
13231;DHT22;6681;53.254;10.398;2023-04-24T13:13:47;13.30;99.90
13231;DHT22;6681;53.254;10.398;2023-04-24T13:16:12;13.30;99.90
13231;DHT22;6681;53.254;10.398;2023-04-24T13:18:38;13.30;99.90
13231;DHT22;6681;53.254;10.398;2023-04-24T13:21:04;13.30;99.90
13231;DHT22;6681;53.254;10.398;2023-04-24T13:23:29;13.30;99.90
13231;DHT22;6681;53.254;10.398;2023-04-24T13:25:55;13.30;99.90
13231;DHT22;6681;53.254;10.398;2023-04-24T13:28:24;13.30;99.90
13231;DHT22;6681;53.254;10.398;2023-04-24T13:30:50;13.20;99.90
13231;DHT22;6681;53.254;10.398;2023-04-24T13:33:16;13.20;99.90
13231;DHT22;6681;53.254;10.398;2023-04-24T13:35:41;13.20;99.90
13231;DHT22;6681;53.254;10.398;2023-04-24T13:38:07;13.20;99.90
13231;DHT22;6681;53.254;10.398;2023-04-24T13:40:33;13.30;99.90
13231;DHT22;6681;53.254;10.398;2023-04-24T13:42:59;13.30;99.90
13231;DHT22;6681;53.254;10.398;2023-04-24T13:45:26;13.40;99.90
13231;DHT22;6681;53.254;10.398;2023-04-24T13:47:52;13.50;99.90
13231;DHT22;6681;53.254;10.398;2023-04-24T13:50:19;13.70;99.90
13231;DHT22;6681;53.254;10.398;2023-04-24T13:52:45;13.90;99.90
13231;DHT22;6681;53.254;10.398;2023-04-24T13:55:11;13.90;99.90
13231;DHT22;6681;53.254;10.398;2023-04-24T13:57:42;13.80;99.90
13231;DHT22;6681;53.254;10.398;2023-04-24T14:00:08;13.90;99.90
13231;DHT22;6681;53.254;10.398;2023-04-24T14:02:35;13.80;99.90
13231;DHT22;6681;53.254;10.398;2023-04-24T14:05:01;13.80;99.90
13231;DHT22;6681;53.254;10.398;2023-04-24T14:07:28;13.70;99.90
13231;DHT22;6681;53.254;10.398;2023-04-24T14:09:54;13.70;99.90
13231;DHT22;6681;53.254;10.398;2023-04-24T14:12:20;13.60;99.90
13231;DHT22;6681;53.254;10.398;2023-04-24T14:14:46;13.50;99.90
13231;DHT22;6681;53.254;10.398;2023-04-24T14:17:13;13.40;99.90
13231;DHT22;6681;53.254;10.398;2023-04-24T14:19:39;13.40;99.90
13231;DHT22;6681;53.254;10.398;2023-04-24T14:22:05;13.30;99.90
13231;DHT22;6681;53.254;10.398;2023-04-24T14:24:30;13.20;99.90
13231;DHT22;6681;53.254;10.398;2023-04-24T14:26:56;13.10;99.90
13231;DHT22;6681;53.254;10.398;2023-04-24T14:29:22;13.10;99.90
13231;DHT22;6681;53.254;10.398;2023-04-24T14:31:48;13.10;99.90
13231;DHT22;6681;53.254;10.398;2023-04-24T14:34:13;13.10;99.90
13231;DHT22;6681;53.254;10.398;2023-04-24T14:36:39;13.10;99.90
13231;DHT22;6681;53.254;10.398;2023-04-24T14:39:05;13.20;99.90
13231;DHT22;6681;53.254;10.398;2023-04-24T14:41:32;13.20;99.90
13231;DHT22;6681;53.254;10.398;2023-04-24T14:44:01;13.10;99.90
13231;DHT22;6681;53.254;10.398;2023-04-24T14:46:28;12.90;99.90
13231;DHT22;6681;53.254;10.398;2023-04-24T14:48:56;12.70;99.90
13231;DHT22;6681;53.254;10.398;2023-04-24T14:51:22;12.60;99.90
13231;DHT22;6681;53.254;10.398;2023-04-24T14:53:47;12.60;99.90
13231;DHT22;6681;53.254;10.398;2023-04-24T14:56:13;12.50;99.90
13231;DHT22;6681;53.254;10.398;2023-04-24T14:58:39;12.40;99.90
13231;DHT22;6681;53.254;10.398;2023-04-24T15:01:05;12.30;99.90
13231;DHT22;6681;53.254;10.398;2023-04-24T15:03:31;12.20;99.90
13231;DHT22;6681;53.254;10.398;2023-04-24T15:05:56;12.00;99.90
13231;DHT22;6681;53.254;10.398;2023-04-24T15:08:22;12.00;99.90
13231;DHT22;6681;53.254;10.398;2023-04-24T15:10:48;12.00;99.90
13231;DHT22;6681;53.254;10.398;2023-04-24T15:13:14;11.90;99.90
13231;DHT22;6681;53.254;10.398;2023-04-24T15:15:39;11.90;99.90
13231;DHT22;6681;53.254;10.398;2023-04-24T15:18:08;12.00;99.90
13231;DHT22;6681;53.254;10.398;2023-04-24T15:20:33;11.70;99.90
13231;DHT22;6681;53.254;10.398;2023-04-24T15:22:59;11.70;99.90
13231;DHT22;6681;53.254;10.398;2023-04-24T15:25:25;11.70;99.90
13231;DHT22;6681;53.254;10.398;2023-04-24T15:27:51;11.70;99.90
13231;DHT22;6681;53.254;10.398;2023-04-24T15:30:17;11.70;99.90
13231;DHT22;6681;53.254;10.398;2023-04-24T15:32:42;11.60;99.90
13231;DHT22;6681;53.254;10.398;2023-04-24T15:35:08;11.70;99.90
13231;DHT22;6681;53.254;10.398;2023-04-24T15:37:34;11.70;99.90
13231;DHT22;6681;53.254;10.398;2023-04-24T15:39:59;11.70;99.90